YYZ weather

Lester B. Pearson International Airport
Toronto, Ontario, Canada

Public forecast

Using degrees Celsius for public forecast. Weather courtesy of forecast.io.

METAR (pilot weather report)

Retrieved 2018/06/24 06:00 UTC (13 minutes ago):

CYYZ 240600Z 00000KT 15SM OVC013 17/15 A2978 RMK SC8 SLP086 DENSITY ALT 1200FT

TAF (pilot weather forecast)

Retrieved 2018/06/24 06:42 UTC (0 seconds ago):

TAF CYYZ 240540Z 2406/2512 VRB03KT P6SM OVC015 PROB30 2406/2408 4SM BR BKN005 FM240800 13005KT 5SM -SHRA BR BKN005 OVC010 TEMPO 2408/2410 6SM BR OVC010 FM241000 VRB03KT 3SM -SHRA BR SCT003 OVC005 TEMPO 2410/2414 6SM BR OVC010 PROB30 2410/2414 OVC003 FM241400 05006KT 3SM -SHRA BR BKN006 OVC010 PROB30 2414/2418 2SM TSRA BR BKN003 OVC010CB FM241800 03008KT 6SM -SHRA BR BKN008 OVC015 FM242000 03010KT P6SM BKN020 OVC080 FM242300 33010KT P6SM BKN040 FM250300 33010KT P6SM SCT040 RMK NXT FCST BY 240900Z